createdAt,value
2018-03-03T00:00:20.746Z,-8.77
2018-03-03T00:01:30.703Z,-8.84
2018-03-03T00:02:40.395Z,-8.75
2018-03-03T00:03:50.346Z,-8.82
2018-03-03T00:05:00.041Z,-8.71
2018-03-03T00:06:09.479Z,-8.77
2018-03-03T00:07:19.177Z,-8.84
2018-03-03T00:08:28.616Z,-8.84
2018-03-03T00:09:38.577Z,-8.88
2018-03-03T00:10:48.284Z,-8.89
2018-03-03T00:11:58.238Z,-8.94
2018-03-03T00:13:07.680Z,-8.89
2018-03-03T00:14:17.367Z,-8.82
2018-03-03T00:15:27.319Z,-8.92
2018-03-03T00:16:37.005Z,-8.84
2018-03-03T00:17:47.062Z,-8.92
2018-03-03T00:18:57.009Z,-8.94
2018-03-03T00:20:06.955Z,-8.89
2018-03-03T00:21:16.904Z,-8.92
2018-03-03T00:22:26.619Z,-8.99
2018-03-03T00:23:36.316Z,-8.98
2018-03-03T00:24:46.035Z,-9.04
2018-03-03T00:25:55.974Z,-9.03
2018-03-03T00:27:05.672Z,-8.99
2018-03-03T00:28:15.113Z,-8.99
2018-03-03T00:29:25.070Z,-9.09
2018-03-03T00:30:34.495Z,-9.09
2018-03-03T00:31:44.189Z,-9.09
2018-03-03T00:32:53.630Z,-9.04
2018-03-03T00:34:03.579Z,-9.06
2018-03-03T00:35:13.268Z,-9.02
2018-03-03T00:36:23.248Z,-9.1
2018-03-03T00:37:32.693Z,-9.1
2018-03-03T00:38:42.394Z,-9.16
2018-03-03T00:39:51.846Z,-9.2
2018-03-03T00:41:01.031Z,-9.12
2018-03-03T00:42:10.516Z,-9.1
2018-03-03T00:43:19.952Z,-9.1
2018-03-03T00:44:29.637Z,-9.14
2018-03-03T00:45:39.339Z,-9.1
2018-03-03T00:46:49.031Z,-9.23
2018-03-03T00:47:58.729Z,-9.12
2018-03-03T00:49:08.427Z,-9.16
2018-03-03T00:50:18.138Z,-9.17
2018-03-03T00:51:27.840Z,-9.21
2018-03-03T00:52:37.799Z,-9.1
2018-03-03T00:53:47.752Z,-9.21
2018-03-03T00:54:57.454Z,-9.16
2018-03-03T00:56:07.147Z,-9.21
2018-03-03T00:57:16.323Z,-9.21
2018-03-03T00:58:26.270Z,-9.13
2018-03-03T00:59:36.230Z,-9.24
2018-03-03T01:00:45.934Z,-9.2
2018-03-03T01:01:55.627Z,-9.16
2018-03-03T01:03:05.582Z,-9.3
2018-03-03T01:04:15.275Z,-9.25
2018-03-03T01:05:25.231Z,-9.21
2018-03-03T01:06:35.181Z,-9.24
2018-03-03T01:07:45.131Z,-9.14
2018-03-03T01:08:55.085Z,-9.23
2018-03-03T01:10:04.783Z,-9.28
2018-03-03T01:11:14.482Z,-9.23
2018-03-03T01:12:24.179Z,-9.3
2018-03-03T01:13:33.616Z,-9.21
2018-03-03T01:14:43.574Z,-9.3
2018-03-03T01:15:53.258Z,-9.28
2018-03-03T01:17:02.954Z,-9.2
2018-03-03T01:18:12.979Z,-9.24
2018-03-03T01:19:22.669Z,-9.31
2018-03-03T01:20:32.643Z,-9.31
2018-03-03T01:21:42.592Z,-9.28
2018-03-03T01:22:52.273Z,-9.2
2018-03-03T01:24:01.980Z,-9.33
2018-03-03T01:25:11.669Z,-9.3
2018-03-03T01:26:21.615Z,-9.27
2018-03-03T01:27:31.444Z,-9.27
2018-03-03T01:28:41.501Z,-9.35
2018-03-03T01:29:51.492Z,-9.3
2018-03-03T01:31:01.198Z,-9.41
2018-03-03T01:32:11.156Z,-9.39
2018-03-03T01:33:21.113Z,-9.41
2018-03-03T01:34:30.280Z,-9.33
2018-03-03T01:35:39.714Z,-9.35
2018-03-03T01:36:49.898Z,-9.43
2018-03-03T01:37:59.837Z,-9.45
2018-03-03T01:39:09.525Z,-9.41
2018-03-03T01:40:18.954Z,-9.43
2018-03-03T01:41:28.656Z,-9.41
2018-03-03T01:42:38.375Z,-9.41
2018-03-03T01:43:48.336Z,-9.46
2018-03-03T01:44:58.297Z,-9.45
2018-03-03T01:46:07.725Z,-9.39
2018-03-03T01:47:17.679Z,-9.56
2018-03-03T01:48:27.359Z,-9.47
2018-03-03T01:49:37.054Z,-9.47
2018-03-03T01:50:46.484Z,-9.61
2018-03-03T01:51:56.175Z,-9.58
2018-03-03T01:53:05.859Z,-9.56
2018-03-03T01:54:15.803Z,-9.6
2018-03-03T01:55:25.232Z,-9.55
2018-03-03T01:56:34.923Z,-9.55
2018-03-03T01:57:44.625Z,-9.56
2018-03-03T01:58:54.570Z,-9.58
2018-03-03T02:00:04.529Z,-9.63
2018-03-03T02:01:13.957Z,-9.63
2018-03-03T02:02:23.906Z,-9.58
2018-03-03T02:03:33.595Z,-9.64
2018-03-03T02:04:43.017Z,-9.7
2018-03-03T02:05:52.703Z,-9.71
2018-03-03T02:07:02.658Z,-9.67
2018-03-03T02:08:12.094Z,-9.65
2018-03-03T02:09:22.053Z,-9.68
2018-03-03T02:10:31.730Z,-9.76
2018-03-03T02:11:41.387Z,-9.73
2018-03-03T02:12:51.085Z,-9.71
2018-03-03T02:14:00.765Z,-9.74
2018-03-03T02:15:10.447Z,-9.73
2018-03-03T02:16:20.134Z,-9.73
2018-03-03T02:17:29.613Z,-9.79
2018-03-03T02:18:38.997Z,-9.79
2018-03-03T02:19:48.945Z,-9.68
2018-03-03T02:20:58.112Z,-9.71
2018-03-03T02:22:07.564Z,-9.79
2018-03-03T02:23:17.249Z,-9.86
2018-03-03T02:24:27.215Z,-9.82
2018-03-03T02:25:37.180Z,-9.81
2018-03-03T02:26:46.874Z,-9.85
2018-03-03T02:27:56.830Z,-9.82
2018-03-03T02:29:06.258Z,-9.84
2018-03-03T02:30:16.211Z,-9.82
2018-03-03T02:31:26.163Z,-9.84
2018-03-03T02:32:36.118Z,-9.92
2018-03-03T02:33:45.552Z,-9.94
2018-03-03T02:34:55.249Z,-9.96
2018-03-03T02:36:05.204Z,-9.94
2018-03-03T02:37:14.904Z,-9.97
2018-03-03T02:38:24.868Z,-9.99
2018-03-03T02:39:34.569Z,-9.94
2018-03-03T02:40:44.513Z,-9.97
2018-03-03T02:41:54.454Z,-9.96
2018-03-03T02:43:03.880Z,-10.07
2018-03-03T02:44:13.574Z,-10.06
2018-03-03T02:45:23.530Z,-10
2018-03-03T02:46:33.475Z,-10.06
2018-03-03T02:47:43.441Z,-10.1
2018-03-03T02:48:52.877Z,-10.02
2018-03-03T02:50:02.045Z,-10.09
2018-03-03T02:51:11.998Z,-10.03
2018-03-03T02:52:21.720Z,-10.17
2018-03-03T02:53:31.686Z,-10.14
2018-03-03T02:54:41.655Z,-10.17
2018-03-03T02:55:51.347Z,-10.17
2018-03-03T02:57:00.776Z,-10.15
2018-03-03T02:58:10.761Z,-10.14
2018-03-03T02:59:20.478Z,-10.15
2018-03-03T03:00:30.432Z,-10.14
2018-03-03T03:01:40.135Z,-10.17
2018-03-03T03:02:50.109Z,-10.17
2018-03-03T03:04:00.073Z,-10.21
2018-03-03T03:05:09.792Z,-10.15
2018-03-03T03:06:19.503Z,-10.21
2018-03-03T03:07:29.457Z,-10.27
2018-03-03T03:08:39.399Z,-10.23
2018-03-03T03:09:49.085Z,-10.34
2018-03-03T03:10:58.508Z,-10.27
2018-03-03T03:12:08.197Z,-10.28
2018-03-03T03:13:18.151Z,-10.25
2018-03-03T03:14:27.834Z,-10.31
2018-03-03T03:15:37.523Z,-10.34
2018-03-03T03:16:46.945Z,-10.35
2018-03-03T03:17:56.880Z,-10.36
2018-03-03T03:19:06.311Z,-10.31
2018-03-03T03:20:16.254Z,-10.39
2018-03-03T03:21:25.936Z,-10.34
2018-03-03T03:22:35.883Z,-10.39
2018-03-03T03:23:45.598Z,-10.3
2018-03-03T03:24:55.550Z,-10.36
2018-03-03T03:26:04.713Z,-10.38
2018-03-03T03:27:14.400Z,-10.35
2018-03-03T03:28:24.091Z,-10.38
2018-03-03T03:29:33.527Z,-10.3
2018-03-03T03:30:42.973Z,-10.39
2018-03-03T03:31:52.670Z,-10.36
2018-03-03T03:33:02.356Z,-10.35
2018-03-03T03:34:11.797Z,-10.35
2018-03-03T03:35:21.744Z,-10.41
2018-03-03T03:36:31.688Z,-10.41
2018-03-03T03:37:41.110Z,-10.38
2018-03-03T03:38:51.078Z,-10.39
2018-03-03T03:40:01.031Z,-10.42
2018-03-03T03:41:10.977Z,-10.39
2018-03-03T03:42:20.409Z,-10.34
2018-03-03T03:43:30.356Z,-10.42
2018-03-03T03:44:40.300Z,-10.42
2018-03-03T03:45:49.976Z,-10.39
2018-03-03T03:46:59.655Z,-10.38
2018-03-03T03:48:09.353Z,-10.38
2018-03-03T03:49:19.291Z,-10.46
2018-03-03T03:50:28.723Z,-10.36
2018-03-03T03:51:38.676Z,-10.52
2018-03-03T03:52:48.375Z,-10.38
2018-03-03T03:53:58.332Z,-10.42
2018-03-03T03:55:08.280Z,-10.42
2018-03-03T03:56:17.975Z,-10.52
2018-03-03T03:57:27.667Z,-10.41
2018-03-03T03:58:37.359Z,-10.44
2018-03-03T03:59:47.041Z,-10.49
2018-03-03T04:00:56.988Z,-10.52
2018-03-03T04:02:06.961Z,-10.53
2018-03-03T04:03:16.901Z,-10.57
2018-03-03T04:04:26.588Z,-10.48
2018-03-03T04:05:36.286Z,-10.44
2018-03-03T04:06:45.980Z,-10.55
2018-03-03T04:07:55.935Z,-10.49
2018-03-03T04:09:05.893Z,-10.56
2018-03-03T04:10:15.628Z,-10.53
2018-03-03T04:11:25.311Z,-10.55
2018-03-03T04:12:35.255Z,-10.52
2018-03-03T04:13:45.207Z,-10.55
2018-03-03T04:14:54.896Z,-10.59
2018-03-03T04:16:04.589Z,-10.55
2018-03-03T04:17:14.273Z,-10.65
2018-03-03T04:18:23.955Z,-10.53
2018-03-03T04:19:33.641Z,-10.59
2018-03-03T04:20:43.598Z,-10.6
2018-03-03T04:21:53.036Z,-10.63
2018-03-03T04:23:02.455Z,-10.56
2018-03-03T04:24:12.140Z,-10.65
2018-03-03T04:25:21.839Z,-10.6
2018-03-03T04:26:31.515Z,-10.6
2018-03-03T04:27:41.466Z,-10.77
2018-03-03T04:28:51.423Z,-10.62
2018-03-03T04:30:01.116Z,-10.78
2018-03-03T04:31:10.555Z,-10.8
2018-03-03T04:32:19.724Z,-10.65
2018-03-03T04:33:29.401Z,-10.69
2018-03-03T04:34:39.351Z,-10.77
2018-03-03T04:35:49.298Z,-10.77
2018-03-03T04:36:58.472Z,-10.78
2018-03-03T04:38:08.161Z,-10.77
2018-03-03T04:39:17.583Z,-10.85
2018-03-03T04:40:27.015Z,-10.81
2018-03-03T04:41:36.962Z,-10.8
2018-03-03T04:42:46.909Z,-10.77
2018-03-03T04:43:56.860Z,-10.77
2018-03-03T04:45:06.800Z,-10.77
2018-03-03T04:46:16.484Z,-10.87
2018-03-03T04:47:25.917Z,-10.81
2018-03-03T04:48:35.598Z,-10.78
2018-03-03T04:49:45.299Z,-10.77
2018-03-03T04:50:54.979Z,-10.77
2018-03-03T04:52:04.937Z,-10.77
2018-03-03T04:53:14.884Z,-10.81
2018-03-03T04:54:24.578Z,-10.83
2018-03-03T04:55:34.525Z,-10.85
2018-03-03T04:56:44.479Z,-10.81
2018-03-03T04:57:54.162Z,-10.77
2018-03-03T04:59:03.851Z,-10.92
2018-03-03T05:00:13.539Z,-10.87
2018-03-03T05:01:23.229Z,-10.85
2018-03-03T05:02:33.170Z,-10.92
2018-03-03T05:03:43.117Z,-10.93
2018-03-03T05:04:52.541Z,-10.9
2018-03-03T05:06:02.237Z,-10.97
2018-03-03T05:07:12.186Z,-10.95
2018-03-03T05:08:22.132Z,-10.92
2018-03-03T05:09:31.299Z,-10.9
2018-03-03T05:10:40.725Z,-10.93
2018-03-03T05:11:50.422Z,-10.95
2018-03-03T05:13:00.103Z,-10.95
2018-03-03T05:14:09.549Z,-10.96
2018-03-03T05:15:19.263Z,-10.99
2018-03-03T05:16:29.219Z,-10.96
2018-03-03T05:17:38.698Z,-10.95
2018-03-03T05:18:48.393Z,-10.99
2018-03-03T05:19:57.828Z,-10.99
2018-03-03T05:21:07.257Z,-10.87
2018-03-03T05:22:16.940Z,-11.02
2018-03-03T05:23:26.970Z,-10.9
2018-03-03T05:24:36.661Z,-10.97
2018-03-03T05:25:46.090Z,-10.99
2018-03-03T05:26:55.526Z,-10.93
2018-03-03T05:28:04.958Z,-11.05
2018-03-03T05:29:14.915Z,-11.03
2018-03-03T05:30:24.614Z,-10.97
2018-03-03T05:31:34.307Z,-10.95
2018-03-03T05:32:43.492Z,-11.03
2018-03-03T05:33:52.675Z,-10.95
2018-03-03T05:35:02.103Z,-11.02
2018-03-03T05:36:11.792Z,-11.02
2018-03-03T05:37:21.218Z,-10.99
2018-03-03T05:38:31.168Z,-10.99
2018-03-03T05:39:40.591Z,-10.99
2018-03-03T05:40:50.531Z,-11.02
2018-03-03T05:42:00.213Z,-11.13
2018-03-03T05:43:09.376Z,-11.05
2018-03-03T05:44:19.324Z,-11.07
2018-03-03T05:45:28.753Z,-11.07
2018-03-03T05:46:38.442Z,-11.14
2018-03-03T05:47:48.133Z,-11.13
2018-03-03T05:48:58.138Z,-11.03
2018-03-03T05:50:08.092Z,-11.13
2018-03-03T05:51:17.524Z,-11.13
2018-03-03T05:52:27.206Z,-11.14
2018-03-03T05:53:36.893Z,-11.11
2018-03-03T05:54:46.570Z,-11.16
2018-03-03T05:55:55.992Z,-11.2
2018-03-03T05:57:05.696Z,-11.06
2018-03-03T05:58:15.122Z,-11.17
2018-03-03T05:59:25.073Z,-11.18
2018-03-03T06:00:34.239Z,-11.2
2018-03-03T06:01:43.965Z,-11.24
2018-03-03T06:02:53.913Z,-11.21
2018-03-03T06:04:03.661Z,-11.18
2018-03-03T06:05:13.606Z,-11.24
2018-03-03T06:06:23.553Z,-11.14
2018-03-03T06:07:33.489Z,-11.14
2018-03-03T06:08:43.437Z,-11.2
2018-03-03T06:09:53.388Z,-11.21
2018-03-03T06:11:03.329Z,-11.21
2018-03-03T06:12:13.028Z,-11.18
2018-03-03T06:13:22.446Z,-11.24
2018-03-03T06:14:32.391Z,-11.18
2018-03-03T06:15:42.332Z,-11.16
2018-03-03T06:16:52.272Z,-11.13
2018-03-03T06:18:01.954Z,-11.14
2018-03-03T06:19:11.651Z,-11.11
2018-03-03T06:20:21.595Z,-11.14
2018-03-03T06:21:31.033Z,-11.16
2018-03-03T06:22:40.726Z,-11.17
2018-03-03T06:23:50.440Z,-11.13
2018-03-03T06:25:00.116Z,-11.16
2018-03-03T06:26:09.839Z,-11.11
2018-03-03T06:27:19.806Z,-11.06
2018-03-03T06:28:29.763Z,-11.11
2018-03-03T06:29:39.702Z,-11.03
2018-03-03T06:30:49.663Z,-11.02
2018-03-03T06:31:59.091Z,-11.02
2018-03-03T06:33:09.049Z,-11.03
2018-03-03T06:34:19.027Z,-11
2018-03-03T06:35:28.967Z,-10.99
2018-03-03T06:36:38.913Z,-10.92
2018-03-03T06:37:48.599Z,-10.96
2018-03-03T06:38:58.291Z,-10.96
2018-03-03T06:40:08.232Z,-11
2018-03-03T06:41:17.928Z,-11
2018-03-03T06:42:27.618Z,-10.99
2018-03-03T06:43:37.327Z,-10.92
2018-03-03T06:44:47.270Z,-10.9
2018-03-03T06:45:57.219Z,-10.85
2018-03-03T06:47:06.906Z,-10.8
2018-03-03T06:48:16.844Z,-10.85
2018-03-03T06:49:26.544Z,-10.88
2018-03-03T06:50:36.492Z,-10.81
2018-03-03T06:51:46.184Z,-10.77
2018-03-03T06:52:55.878Z,-10.83
2018-03-03T06:54:05.826Z,-10.65
2018-03-03T06:55:15.527Z,-10.74
2018-03-03T06:56:25.478Z,-10.62
2018-03-03T06:57:35.424Z,-10.67
2018-03-03T06:58:45.380Z,-10.62
2018-03-03T06:59:55.332Z,-10.53
2018-03-03T07:01:05.026Z,-10.52
2018-03-03T07:02:14.980Z,-10.49
2018-03-03T07:03:24.663Z,-10.44
2018-03-03T07:04:34.370Z,-10.49
2018-03-03T07:05:44.328Z,-10.46
2018-03-03T07:06:54.275Z,-10.42
2018-03-03T07:08:03.967Z,-10.35
2018-03-03T07:09:13.656Z,-10.34
2018-03-03T07:10:23.595Z,-10.28
2018-03-03T07:11:33.542Z,-10.21
2018-03-03T07:12:43.238Z,-10.12
2018-03-03T07:13:53.184Z,-10.14
2018-03-03T07:15:03.136Z,-10.17
2018-03-03T07:16:12.886Z,-10.17
2018-03-03T07:17:22.320Z,-10.1
2018-03-03T07:18:32.265Z,-10.05
2018-03-03T07:19:42.218Z,-10
2018-03-03T07:20:52.173Z,-9.97
2018-03-03T07:22:02.132Z,-9.92
2018-03-03T07:23:12.082Z,-9.91
2018-03-03T07:24:22.045Z,-9.92
2018-03-03T07:25:31.748Z,-9.92
2018-03-03T07:26:41.711Z,-9.81
2018-03-03T07:27:51.656Z,-9.74
2018-03-03T07:29:00.815Z,-9.82
2018-03-03T07:30:10.659Z,-9.73
2018-03-03T07:31:20.097Z,-9.73
2018-03-03T07:32:29.528Z,-9.63
2018-03-03T07:33:38.988Z,-9.68
2018-03-03T07:34:48.427Z,-9.58
2018-03-03T07:35:58.112Z,-9.47
2018-03-03T07:37:07.817Z,-9.47
2018-03-03T07:38:17.818Z,-9.45
2018-03-03T07:39:27.247Z,-9.43
2018-03-03T07:40:37.207Z,-9.34
2018-03-03T07:41:46.898Z,-9.37
2018-03-03T07:42:56.597Z,-9.2
2018-03-03T07:44:06.291Z,-9.27
2018-03-03T07:45:16.245Z,-9.25
2018-03-03T07:46:25.675Z,-9.16
2018-03-03T07:47:35.638Z,-9.09
2018-03-03T07:48:45.586Z,-9.06
2018-03-03T07:49:55.543Z,-9.02
2018-03-03T07:51:05.499Z,-8.96
2018-03-03T07:52:15.204Z,-8.92
2018-03-03T07:53:24.905Z,-8.89
2018-03-03T07:54:34.893Z,-8.77
2018-03-03T07:55:44.338Z,-8.8
2018-03-03T07:56:54.292Z,-8.77
2018-03-03T07:58:04.265Z,-8.65
2018-03-03T07:59:13.972Z,-8.59
2018-03-03T08:00:23.663Z,-8.59
2018-03-03T08:01:33.623Z,-8.53
2018-03-03T08:02:43.121Z,-8.53
2018-03-03T08:03:52.810Z,-8.36
2018-03-03T08:05:02.789Z,-8.39
2018-03-03T08:06:11.973Z,-8.36
2018-03-03T08:07:21.662Z,-8.36
2018-03-03T08:08:31.613Z,-8.24
2018-03-03T08:09:41.573Z,-8.2
2018-03-03T08:10:51.291Z,-8.18
2018-03-03T08:12:00.985Z,-8.08
2018-03-03T08:13:10.944Z,-8.03
2018-03-03T08:14:20.882Z,-8.1
2018-03-03T08:15:30.582Z,-8.1
2018-03-03T08:16:40.274Z,-7.94
2018-03-03T08:17:49.724Z,-7.91
2018-03-03T08:18:59.669Z,-7.77
2018-03-03T08:20:09.360Z,-7.7
2018-03-03T08:21:19.321Z,-7.52
2018-03-03T08:22:28.787Z,-7.25
2018-03-03T08:23:38.483Z,-7.13
2018-03-03T08:24:47.923Z,-6.88
2018-03-03T08:25:57.122Z,-6.84
2018-03-03T08:27:07.111Z,-6.6
2018-03-03T08:28:17.077Z,-6.46
2018-03-03T08:29:26.516Z,-6.48
2018-03-03T08:30:36.257Z,-6.38
2018-03-03T08:31:45.703Z,-6.21
2018-03-03T08:32:55.669Z,-6.1
2018-03-03T08:34:05.418Z,-5.91
2018-03-03T08:35:15.374Z,-5.92
2018-03-03T08:36:25.078Z,-5.97
2018-03-03T08:37:34.508Z,-5.76
2018-03-03T08:38:44.493Z,-5.67
2018-03-03T08:39:53.667Z,-5.46
2018-03-03T08:41:03.615Z,-5.37
2018-03-03T08:42:13.572Z,-5.31
2018-03-03T08:43:23.010Z,-5.31
2018-03-03T08:44:32.974Z,-5.19
2018-03-03T08:45:42.936Z,-5.06
2018-03-03T08:46:52.427Z,-4.91
2018-03-03T08:48:02.400Z,-4.74
2018-03-03T08:49:12.367Z,-4.74
2018-03-03T08:50:22.068Z,-4.62
2018-03-03T08:51:31.857Z,-4.77
2018-03-03T08:52:41.563Z,-4.76
2018-03-03T08:53:51.032Z,-4.7
2018-03-03T08:55:01.000Z,-4.73
2018-03-03T08:56:10.437Z,-4.79
2018-03-03T08:57:20.458Z,-4.76
2018-03-03T08:58:30.175Z,-4.77
2018-03-03T08:59:40.132Z,-4.8
2018-03-03T09:00:50.088Z,-4.88
2018-03-03T09:01:59.570Z,-4.77
2018-03-03T09:03:09.530Z,-4.73
2018-03-03T09:04:19.486Z,-4.74
2018-03-03T09:05:29.469Z,-4.74
2018-03-03T09:06:39.197Z,-4.77
2018-03-03T09:07:48.892Z,-4.81
2018-03-03T09:08:58.328Z,-4.76
2018-03-03T09:10:08.389Z,-4.67
2018-03-03T09:11:18.095Z,-4.56
2018-03-03T09:12:27.794Z,-4.41
2018-03-03T09:13:37.842Z,-4.12
2018-03-03T09:14:47.830Z,-4.19
2018-03-03T09:15:57.780Z,-4.05
2018-03-03T09:17:07.499Z,-3.83
2018-03-03T09:18:17.465Z,-3.84
2018-03-03T09:19:26.962Z,-3.69
2018-03-03T09:20:36.739Z,-3.47
2018-03-03T09:21:46.453Z,-3.33
2018-03-03T09:22:56.420Z,-3.4
2018-03-03T09:24:06.134Z,-3.44
2018-03-03T09:25:15.900Z,-3.59
2018-03-03T09:26:25.884Z,-3.47
2018-03-03T09:27:35.326Z,-3.32
2018-03-03T09:28:44.784Z,-3.32
2018-03-03T09:29:54.746Z,-3.38
2018-03-03T09:31:04.212Z,-3.4
2018-03-03T09:32:13.915Z,-3.36
2018-03-03T09:33:23.894Z,-3.26
2018-03-03T09:34:33.858Z,-3.2
2018-03-03T09:35:43.333Z,-3.11
2018-03-03T09:36:52.774Z,-2.8
2018-03-03T09:38:02.230Z,-2.55
2018-03-03T09:39:12.236Z,-2.5
2018-03-03T09:40:22.201Z,-2.23
2018-03-03T09:41:31.393Z,-2.02
2018-03-03T09:42:40.585Z,-2.1
2018-03-03T09:43:50.292Z,-2.28
2018-03-03T09:44:59.744Z,-2.5
2018-03-03T09:46:09.548Z,-2.36
2018-03-03T09:47:18.944Z,-2.11
2018-03-03T09:48:28.652Z,-2.07
2018-03-03T09:49:38.099Z,-2.1
2018-03-03T09:50:47.822Z,-1.94
2018-03-03T09:51:57.845Z,-1.84
2018-03-03T09:53:07.585Z,-1.63
2018-03-03T09:54:17.308Z,-1.71
2018-03-03T09:55:27.312Z,-2
2018-03-03T09:56:37.278Z,-2.11
2018-03-03T09:57:46.731Z,-2.11
2018-03-03T09:58:56.773Z,-1.99
2018-03-03T10:00:06.228Z,-1.94
2018-03-03T10:01:15.926Z,-1.84
2018-03-03T10:02:25.619Z,-1.75
2018-03-03T10:03:35.326Z,-1.58
2018-03-03T10:04:44.789Z,-1.15
2018-03-03T10:05:54.769Z,-0.97
2018-03-03T10:07:04.753Z,-0.77
2018-03-03T10:08:14.484Z,-0.75
2018-03-03T10:09:24.519Z,-0.45
2018-03-03T10:10:34.368Z,-0.31
2018-03-03T10:11:44.091Z,-0.57
2018-03-03T10:12:53.792Z,-0.69
2018-03-03T10:14:03.503Z,-0.42
2018-03-03T10:15:13.207Z,-0.33
2018-03-03T10:16:23.236Z,-0.18
2018-03-03T10:17:32.426Z,-0.38
2018-03-03T10:18:42.397Z,-0.41
2018-03-03T10:19:52.098Z,-0.48
2018-03-03T10:21:02.074Z,-0.54
2018-03-03T10:22:12.064Z,-0.62
2018-03-03T10:23:21.785Z,-0.64
2018-03-03T10:24:31.757Z,-0.57
2018-03-03T10:25:41.737Z,-0.75
2018-03-03T10:26:51.446Z,-0.46
2018-03-03T10:28:01.415Z,-0.33
2018-03-03T10:29:11.390Z,-0.33
2018-03-03T10:30:20.839Z,-0.31
2018-03-03T10:31:30.558Z,-0.48
2018-03-03T10:32:40.268Z,-0.41
2018-03-03T10:33:49.964Z,-0.48
2018-03-03T10:34:59.663Z,-0.41
2018-03-03T10:36:09.381Z,-0.15
2018-03-03T10:37:19.354Z,-0.15
2018-03-03T10:38:29.056Z,-0.42
2018-03-03T10:39:38.506Z,-0.63
2018-03-03T10:40:48.229Z,-0.77
2018-03-03T10:41:58.200Z,-0.44
2018-03-03T10:43:07.907Z,-0.54
2018-03-03T10:44:17.634Z,-0.62
2018-03-03T10:45:27.919Z,-0.42
2018-03-03T10:46:37.629Z,-0.13
2018-03-03T10:47:46.815Z,0.02
2018-03-03T10:48:56.519Z,-0.02
2018-03-03T10:50:05.978Z,0.09
2018-03-03T10:51:15.942Z,-0.05
2018-03-03T10:52:25.921Z,-0.05
2018-03-03T10:53:35.899Z,-0.03
2018-03-03T10:54:45.900Z,-0.17
2018-03-03T10:55:55.620Z,-0.33
2018-03-03T10:57:05.328Z,-0.31
2018-03-03T10:58:14.784Z,-0.53
2018-03-03T10:59:24.500Z,-0.2
2018-03-03T11:00:34.232Z,0
2018-03-03T11:01:43.935Z,0
2018-03-03T11:02:53.892Z,0.27
2018-03-03T11:04:03.427Z,0.55
2018-03-03T11:05:13.145Z,0.34
2018-03-03T11:06:22.858Z,0.48
2018-03-03T11:07:32.809Z,0.67
2018-03-03T11:08:42.519Z,0.47
2018-03-03T11:09:52.491Z,1.07
2018-03-03T11:11:02.204Z,1.02
2018-03-03T11:12:11.937Z,1.07
2018-03-03T11:13:21.654Z,1.21
2018-03-03T11:14:31.629Z,1.58
2018-03-03T11:15:41.624Z,1.57
2018-03-03T11:16:51.620Z,1.46
2018-03-03T11:18:01.599Z,1.38
2018-03-03T11:19:11.072Z,0.89
2018-03-03T11:20:21.051Z,0.96
2018-03-03T11:21:30.796Z,1.12
2018-03-03T11:22:40.528Z,1.3
2018-03-03T11:23:49.966Z,1.4
2018-03-03T11:24:59.420Z,1.36
2018-03-03T11:26:09.397Z,1.18
2018-03-03T11:27:19.365Z,1.1
2018-03-03T11:28:29.358Z,0.86
2018-03-03T11:29:39.079Z,0.85
2018-03-03T11:30:48.804Z,0.7
2018-03-03T11:31:58.774Z,0.84
2018-03-03T11:33:08.486Z,0.67
2018-03-03T11:34:18.200Z,0.51
2018-03-03T11:35:28.195Z,0.55
2018-03-03T11:36:37.905Z,0.58
2018-03-03T11:37:47.981Z,0.91
2018-03-03T11:38:57.941Z,0.77
2018-03-03T11:40:07.644Z,0.68
2018-03-03T11:41:17.370Z,0.76
2018-03-03T11:42:27.335Z,1.3
2018-03-03T11:43:36.775Z,1.38
2018-03-03T11:44:46.760Z,1.42
2018-03-03T11:45:56.724Z,1.32
2018-03-03T11:47:06.694Z,1.06
2018-03-03T11:48:16.404Z,0.73
2018-03-03T11:49:26.367Z,0.68
2018-03-03T11:50:36.344Z,0.59
2018-03-03T11:51:46.068Z,0.73
2018-03-03T11:52:56.058Z,1.03
2018-03-03T11:54:05.803Z,1.16
2018-03-03T11:55:15.769Z,1.42
2018-03-03T11:56:25.754Z,1.56
2018-03-03T11:57:35.754Z,1.42
2018-03-03T11:58:45.733Z,1.63
2018-03-03T11:59:55.700Z,2.25
2018-03-03T12:01:05.412Z,1.81
2018-03-03T12:02:15.385Z,1.4
2018-03-03T12:03:25.363Z,1.27
2018-03-03T12:04:35.330Z,1.03
2018-03-03T12:05:45.291Z,1.4
2018-03-03T12:06:54.988Z,1.38
2018-03-03T12:08:04.703Z,1.48
2018-03-03T12:09:14.485Z,1.66
2018-03-03T12:10:24.221Z,1.84
2018-03-03T12:11:33.963Z,2.12
2018-03-03T12:12:43.422Z,1.95
2018-03-03T12:13:53.398Z,2.33
2018-03-03T12:15:02.863Z,2.73
2018-03-03T12:16:12.319Z,2.54
2018-03-03T12:17:21.774Z,2.7
2018-03-03T12:18:31.741Z,2.72
2018-03-03T12:19:41.446Z,2.39
2018-03-03T12:20:51.432Z,2.68
2018-03-03T12:22:01.144Z,3.15
2018-03-03T12:23:11.118Z,3.16
2018-03-03T12:24:21.076Z,3.05
2018-03-03T12:25:30.781Z,3
2018-03-03T12:26:40.497Z,3.15
2018-03-03T12:27:50.231Z,3.31
2018-03-03T12:28:59.994Z,2.94
2018-03-03T12:30:09.444Z,2.85
2018-03-03T12:31:19.154Z,2.95
2018-03-03T12:32:29.138Z,2.93
2018-03-03T12:33:38.870Z,2.8
2018-03-03T12:34:48.335Z,2.94
2018-03-03T12:35:58.076Z,3.21
2018-03-03T12:37:08.051Z,3.33
2018-03-03T12:38:17.771Z,3.27
2018-03-03T12:39:27.490Z,3.56
2018-03-03T12:40:36.939Z,3.67
2018-03-03T12:41:46.907Z,3.86
2018-03-03T12:42:56.112Z,3.81
2018-03-03T12:44:05.817Z,3.59
2018-03-03T12:45:15.550Z,3.56
2018-03-03T12:46:25.264Z,3.66
2018-03-03T12:47:35.073Z,3.66
2018-03-03T12:48:44.463Z,3.85
2018-03-03T12:49:54.184Z,3.66
2018-03-03T12:51:03.917Z,3.68
2018-03-03T12:52:13.637Z,3.63
2018-03-03T12:53:23.345Z,3.36
2018-03-03T12:54:33.303Z,2.8
2018-03-03T12:55:43.275Z,2.51
2018-03-03T12:56:52.995Z,2.85
2018-03-03T12:58:02.716Z,3.06
2018-03-03T12:59:12.716Z,3.11
2018-03-03T13:00:22.169Z,3.21
2018-03-03T13:01:31.373Z,3.29
2018-03-03T13:02:41.380Z,3.09
2018-03-03T13:03:51.102Z,2.68
2018-03-03T13:05:01.090Z,2.94
2018-03-03T13:06:10.802Z,3.11
2018-03-03T13:07:20.841Z,3.09
2018-03-03T13:08:30.290Z,3.09
2018-03-03T13:09:40.258Z,3.13
2018-03-03T13:10:49.727Z,2.94
2018-03-03T13:11:59.180Z,2.64
2018-03-03T13:13:09.148Z,2.18
2018-03-03T13:14:18.862Z,2.3
2018-03-03T13:15:28.570Z,2.3
2018-03-03T13:16:38.275Z,2.44
2018-03-03T13:17:47.744Z,2.76
2018-03-03T13:18:57.464Z,2.93
2018-03-03T13:20:07.462Z,2.95
2018-03-03T13:21:16.909Z,2.88
2018-03-03T13:22:26.900Z,2.82
2018-03-03T13:23:36.887Z,2.82
2018-03-03T13:24:46.608Z,2.75
2018-03-03T13:25:55.804Z,2.73
2018-03-03T13:27:05.511Z,2.9
2018-03-03T13:28:14.969Z,3.01
2018-03-03T13:29:24.962Z,3.16
2018-03-03T13:30:34.950Z,3.27
2018-03-03T13:31:44.936Z,2.65
2018-03-03T13:32:54.663Z,2.54
2018-03-03T13:34:04.629Z,2.37
2018-03-03T13:35:14.597Z,2.32
2018-03-03T13:36:24.567Z,2.43
2018-03-03T13:37:34.274Z,2.21
2018-03-03T13:38:44.250Z,2.03
2018-03-03T13:39:54.226Z,2.04
2018-03-03T13:41:04.334Z,2.33
2018-03-03T13:42:14.129Z,2.41
2018-03-03T13:43:24.106Z,2.03
2018-03-03T13:44:34.096Z,2.28
2018-03-03T13:45:43.822Z,1.97
2018-03-03T13:46:53.535Z,1.79
2018-03-03T13:48:03.517Z,2.04
2018-03-03T13:49:13.532Z,2.3
2018-03-03T13:50:23.235Z,2.33
2018-03-03T13:51:33.203Z,2.34
2018-03-03T13:52:43.208Z,2.3
2018-03-03T13:53:52.932Z,2.26
2018-03-03T13:55:02.671Z,2.43
2018-03-03T13:56:12.389Z,2.61
2018-03-03T13:57:22.363Z,2.83
2018-03-03T13:58:31.822Z,2.88
2018-03-03T13:59:41.019Z,2.52
2018-03-03T14:00:50.750Z,2.3
2018-03-03T14:02:00.731Z,2.04
2018-03-03T14:03:10.713Z,1.86
2018-03-03T14:04:20.189Z,1.89
2018-03-03T14:05:29.642Z,1.88
2018-03-03T14:06:39.358Z,1.78
2018-03-03T14:07:49.424Z,1.5
2018-03-03T14:08:58.876Z,1.52
2018-03-03T14:10:08.872Z,1.64
2018-03-03T14:11:18.858Z,1.81
2018-03-03T14:12:28.850Z,1.97
2018-03-03T14:13:38.580Z,2.28
2018-03-03T14:14:48.030Z,2.33
2018-03-03T14:15:58.017Z,2.25
2018-03-03T14:17:08.005Z,2.23
2018-03-03T14:18:17.727Z,2.4
2018-03-03T14:19:27.765Z,2.21
2018-03-03T14:20:37.218Z,2.01
2018-03-03T14:21:47.197Z,1.78
2018-03-03T14:22:56.969Z,1.92
2018-03-03T14:24:06.991Z,1.75
2018-03-03T14:25:16.970Z,1.74
2018-03-03T14:26:26.421Z,1.82
2018-03-03T14:27:36.132Z,1.98
2018-03-03T14:28:45.582Z,2.22
2018-03-03T14:29:55.305Z,2.12
2018-03-03T14:31:05.016Z,1.98
2018-03-03T14:32:14.731Z,2.08
2018-03-03T14:33:24.709Z,1.88
2018-03-03T14:34:34.688Z,2.08
2018-03-03T14:35:44.395Z,1.82
2018-03-03T14:36:54.368Z,2
2018-03-03T14:38:03.820Z,2.07
2018-03-03T14:39:13.785Z,2.03
2018-03-03T14:40:23.511Z,1.71
2018-03-03T14:41:33.218Z,1.6
2018-03-03T14:42:42.676Z,1.57
2018-03-03T14:43:52.659Z,1.58
2018-03-03T14:45:02.645Z,1.43
2018-03-03T14:46:12.624Z,1.43
2018-03-03T14:47:22.330Z,1.4
2018-03-03T14:48:31.781Z,1.42
2018-03-03T14:49:41.492Z,1.25
2018-03-03T14:50:51.680Z,1.12
2018-03-03T14:52:01.688Z,1.32
2018-03-03T14:53:11.663Z,1.46
2018-03-03T14:54:21.133Z,1.49
2018-03-03T14:55:31.101Z,1.28
2018-03-03T14:56:40.868Z,1.43
2018-03-03T14:57:50.844Z,1.58
2018-03-03T14:59:00.808Z,1.84
2018-03-03T15:00:10.801Z,1.61
2018-03-03T15:01:20.510Z,1.57